Time;durP1;ratioP1;P1;durP2;ratioP2;P2;SDS_P1;SDS_P2;PMS_P1;PMS_P2;Temp;Humidity;BMP_temperature;BMP_pressure;BME280_temperature;BME280_humidity;BME280_pressure;Samples;Min_cycle;Max_cycle;Signal;HPM_P1;HPM_P2
2023/10/17 00:01:47;;;;;;;;;;;;;;;9.13;100.00;98203.50;5105439;28;19924;-66
2023/10/17 00:04:27;;;;;;;;;;;;;;;9.14;100.00;98196.31;5103870;28;19930;-65
2023/10/17 00:06:55;;;;;;;;;;;;;;;9.13;100.00;98194.72;5090881;28;19951;-65
2023/10/17 00:09:24;;;;;;;;;;;;;;;9.13;100.00;98198.19;5101986;28;19936;-65
2023/10/17 00:11:58;;;;;;;;;;;;;;;9.13;100.00;98190.19;5103755;28;19924;-65
2023/10/17 00:14:27;;;;;;;;;;;;;;;9.12;100.00;98193.94;5101631;28;19963;-65
2023/10/17 00:16:55;;;;;;;;;;;;;;;9.12;100.00;98182.47;5133345;27;19925;-65
2023/10/17 00:19:26;;;;;;;;;;;;;;;9.12;100.00;98185.13;5100646;28;19924;-65
2023/10/17 00:21:52;;;;;;;;;;;;;;;9.11;100.00;98184.31;5100188;28;19967;-65
2023/10/17 00:24:19;;;;;;;;;;;;;;;9.07;100.00;98191.19;5101461;28;19924;-65
2023/10/17 00:26:47;;;;;;;;;;;;;;;9.08;100.00;98178.66;5103390;28;19930;-65
2023/10/17 00:29:14;;;;;;;;;;;;;;;9.06;100.00;98180.78;5095393;28;19924;-65
2023/10/17 00:31:41;;;;;;;;;;;;;;;9.07;100.00;98177.03;5103772;28;19931;-65
2023/10/17 00:34:14;;;;;;;;;;;;;;;9.06;100.00;98167.47;5103869;28;19946;-65
2023/10/17 00:36:49;;;;;;;;;;;;;;;9.06;100.00;98170.94;5071571;28;19925;-65
2023/10/17 00:39:22;;;;;;;;;;;;;;;9.05;100.00;98176.50;5071718;28;19947;-65
2023/10/17 00:42:09;;;;;;;;;;;;;;;9.04;100.00;98178.34;5090584;28;19935;-65
2023/10/17 00:44:36;;;;;;;;;;;;;;;9.03;100.00;98175.94;5099794;28;19928;-65
2023/10/17 00:47:04;;;;;;;;;;;;;;;9.01;100.00;98170.03;5100128;28;19924;-65
2023/10/17 00:49:33;;;;;;;;;;;;;;;9.01;100.00;98172.69;5111137;28;19924;-65
2023/10/17 00:52:03;;;;;;;;;;;;;;;8.99;100.00;98167.63;5103400;28;19931;-65
2023/10/17 00:54:31;;;;;;;;;;;;;;;8.99;100.00;98167.63;5103302;28;19930;-65
2023/10/17 00:57:00;;;;;;;;;;;;;;;8.99;100.00;98175.63;5103317;28;19928;-65
2023/10/17 00:59:29;;;;;;;;;;;;;;;8.99;100.00;98177.47;5103499;28;19928;-65
2023/10/17 01:01:56;;;;;;;;;;;;;;;8.98;100.00;98187.31;5103295;28;19959;-66
2023/10/17 01:04:24;;;;;;;;;;;;;;;8.97;100.00;98182.25;5102909;28;20734;-66
2023/10/17 01:06:54;;;;;;;;;;;;;;;8.97;100.00;98176.94;5096076;28;19924;-66
2023/10/17 01:09:24;;;;;;;;;;;;;;;8.94;100.00;98178.22;5098018;28;19928;-66
2023/10/17 01:11:51;;;;;;;;;;;;;;;8.95;100.00;98179.00;5105125;28;19970;-66
2023/10/17 01:14:19;;;;;;;;;;;;;;;8.94;100.00;98172.09;5102646;28;19928;-66
2023/10/17 01:16:46;;;;;;;;;;;;;;;8.92;100.00;98164.34;5103148;28;19955;-66
2023/10/17 01:19:19;;;;;;;;;;;;;;;8.91;100.00;98156.59;5101822;28;19927;-66
2023/10/17 01:21:45;;;;;;;;;;;;;;;8.90;100.00;98155.78;5099308;28;19932;-65
2023/10/17 01:24:13;;;;;;;;;;;;;;;8.90;100.00;98153.13;5099600;28;19996;-65
2023/10/17 01:26:44;;;;;;;;;;;;;;;8.91;100.00;98148.63;5103030;28;19924;-65
2023/10/17 01:29:11;;;;;;;;;;;;;;;8.90;100.00;98162.97;5107035;28;19930;-65
2023/10/17 01:31:39;;;;;;;;;;;;;;;8.89;100.00;98150.69;5103061;28;19924;-65
2023/10/17 01:34:08;;;;;;;;;;;;;;;8.88;100.00;98155.22;5103408;28;19960;-65
2023/10/17 01:36:34;;;;;;;;;;;;;;;8.87;100.00;98158.13;5086667;28;19988;-65
2023/10/17 01:39:01;;;;;;;;;;;;;;;8.87;100.00;98158.13;5074755;28;19954;-65
2023/10/17 01:41:28;;;;;;;;;;;;;;;8.85;100.00;98155.72;5074830;28;19952;-65
2023/10/17 01:43:56;;;;;;;;;;;;;;;8.75;100.00;98158.25;5074825;28;19935;-65
2023/10/17 01:46:23;;;;;;;;;;;;;;;8.77;100.00;98155.31;5092994;28;19924;-65
2023/10/17 01:48:49;;;;;;;;;;;;;;;8.78;100.00;98149.78;5094761;28;19928;-65
2023/10/17 01:51:16;;;;;;;;;;;;;;;8.78;100.00;98147.09;5104042;28;19977;-65
2023/10/17 01:53:43;;;;;;;;;;;;;;;8.79;100.00;98145.25;5102299;28;19924;-65
2023/10/17 01:56:15;;;;;;;;;;;;;;;8.78;100.00;98146.31;5103234;28;19984;-65
2023/10/17 01:58:48;;;;;;;;;;;;;;;8.78;100.00;98140.97;5095748;28;19924;-65
2023/10/17 02:01:16;;;;;;;;;;;;;;;8.77;100.00;98150.00;5103792;28;19925;-66
2023/10/17 02:03:43;;;;;;;;;;;;;;;8.76;100.00;98148.41;5106620;28;19928;-65
2023/10/17 02:06:14;;;;;;;;;;;;;;;8.75;100.00;98144.13;5093468;28;19932;-66
2023/10/17 02:08:41;;;;;;;;;;;;;;;8.74;100.00;98145.97;5099580;28;19946;-66
2023/10/17 02:11:12;;;;;;;;;;;;;;;8.73;100.00;98148.91;5114796;28;19930;-66
2023/10/17 02:13:40;;;;;;;;;;;;;;;8.71;100.00;98145.66;5114845;28;19932;-66
2023/10/17 02:16:08;;;;;;;;;;;;;;;8.71;100.00;98138.47;5114818;28;19959;-66
2023/10/17 02:18:35;;;;;;;;;;;;;;;8.68;100.00;98145.09;5114850;28;19924;-67
2023/10/17 02:21:04;;;;;;;;;;;;;;;8.66;100.00;98133.88;5113674;28;19935;-66
2023/10/17 02:23:39;;;;;;;;;;;;;;;8.64;100.00;98130.66;5114557;28;19931;-65
2023/10/17 02:26:08;;;;;;;;;;;;;;;8.65;100.00;98126.16;5114537;28;19946;-66
2023/10/17 02:28:44;;;;;;;;;;;;;;;8.65;100.00;98123.50;5114312;28;19924;-65
2023/10/17 02:31:13;;;;;;;;;;;;;;;8.65;100.00;98118.16;5114070;28;19924;-65
2023/10/17 02:33:41;;;;;;;;;;;;;;;8.63;100.00;98123.72;5114284;28;19920;-65
2023/10/17 02:36:12;;;;;;;;;;;;;;;8.63;100.00;98123.72;5105460;28;20321;-65
2023/10/17 02:38:38;;;;;;;;;;;;;;;8.64;100.00;98132.50;5092861;28;19924;-65
2023/10/17 02:41:06;;;;;;;;;;;;;;;8.61;100.00;98123.16;5102771;28;19951;-65
2023/10/17 02:43:37;;;;;;;;;;;;;;;8.61;100.00;98119.69;5094055;28;19931;-65
2023/10/17 02:46:05;;;;;;;;;;;;;;;8.59;100.00;98109.31;5092766;28;19928;-65
2023/10/17 02:48:38;;;;;;;;;;;;;;;8.58;100.00;98117.53;5093669;28;19925;-65
2023/10/17 02:51:11;;;;;;;;;;;;;;;8.58;100.00;98113.00;5093566;28;19947;-65
2023/10/17 02:53:43;;;;;;;;;;;;;;;8.57;100.00;98114.03;5093584;28;19925;-65
2023/10/17 02:56:18;;;;;;;;;;;;;;;8.57;100.00;98103.41;5101652;28;19924;-65
2023/10/17 02:58:47;;;;;;;;;;;;;;;8.56;100.00;98111.66;5094810;28;19943;-66
2023/10/17 03:01:14;;;;;;;;;;;;;;;8.53;100.00;98104.97;5093805;28;19950;-65
2023/10/17 03:03:42;;;;;;;;;;;;;;;8.55;100.00;98108.19;5104313;28;19924;-65
2023/10/17 03:06:15;;;;;;;;;;;;;;;8.53;100.00;98112.94;5096162;28;19925;-65
2023/10/17 03:08:42;;;;;;;;;;;;;;;8.53;100.00;98109.47;5094279;28;19992;-65
2023/10/17 03:11:15;;;;;;;;;;;;;;;8.51;100.00;98109.72;5109852;28;19924;-65
2023/10/17 03:13:43;;;;;;;;;;;;;;;8.51;100.00;98109.72;5113227;28;19924;-65
2023/10/17 03:16:17;;;;;;;;;;;;;;;8.50;100.00;98113.44;5113403;28;20458;-65
2023/10/17 03:18:48;;;;;;;;;;;;;;;8.49;100.00;98125.13;5109081;28;19976;-66
2023/10/17 03:21:18;;;;;;;;;;;;;;;8.43;100.00;98123.44;5093162;28;19925;-66
2023/10/17 03:23:46;;;;;;;;;;;;;;;8.22;100.00;98133.97;5093094;28;19924;-66
2023/10/17 03:26:13;;;;;;;;;;;;;;;8.34;100.00;98124.91;5091886;28;19955;-66
2023/10/17 03:28:40;;;;;;;;;;;;;;;8.36;100.00;98127.31;5093043;28;19960;-66
2023/10/17 03:31:10;;;;;;;;;;;;;;;8.33;100.00;98120.63;5092870;28;19920;-66
2023/10/17 03:33:40;;;;;;;;;;;;;;;8.34;100.00;98127.56;5093282;28;19931;-66
2023/10/17 03:36:34;;;;;;;;;;;;;;;8.36;100.00;98128.13;5088626;28;19925;-65
2023/10/17 03:39:02;;;;;;;;;;;;;;;8.40;100.00;98131.09;5072941;28;19931;-66
2023/10/17 03:41:29;;;;;;;;;;;;;;;8.36;100.00;98133.44;5072807;28;19980;-66
2023/10/17 03:43:55;;;;;;;;;;;;;;;8.38;100.00;98133.22;5072675;28;19936;-66
2023/10/17 03:46:25;;;;;;;;;;;;;;;8.37;100.00;98137.72;5072408;28;19936;-66
2023/10/17 03:48:57;;;;;;;;;;;;;;;8.36;100.00;98135.28;5077933;28;19924;-66
2023/10/17 03:51:25;;;;;;;;;;;;;;;8.35;100.00;98137.16;5110403;28;19924;-66
2023/10/17 03:53:53;;;;;;;;;;;;;;;8.33;100.00;98133.91;5112813;28;19996;-66
2023/10/17 03:56:23;;;;;;;;;;;;;;;8.33;100.00;98127.78;5112688;28;19924;-66
2023/10/17 03:58:53;;;;;;;;;;;;;;;8.31;100.00;98129.91;5111431;28;19946;-66
2023/10/17 04:01:23;;;;;;;;;;;;;;;8.31;100.00;98120.06;5104143;28;19925;-66
2023/10/17 04:03:53;;;;;;;;;;;;;;;8.30;100.00;98123.75;5104335;28;19923;-66
2023/10/17 04:06:26;;;;;;;;;;;;;;;8.31;100.00;98128.06;5091942;28;19924;-66
2023/10/17 04:09:15;;;;;;;;;;;;;;;8.30;100.00;98120.28;5072042;28;19925;-66
2023/10/17 04:11:45;;;;;;;;;;;;;;;8.28;100.00;98119.75;5071844;28;19925;-66
2023/10/17 04:14:11;;;;;;;;;;;;;;;8.26;100.00;98127.94;5072122;28;19976;-66
2023/10/17 04:16:39;;;;;;;;;;;;;;;8.26;100.00;98127.13;5071913;28;19932;-66
2023/10/17 04:19:07;;;;;;;;;;;;;;;8.25;100.00;98131.66;5071923;28;19925;-66
2023/10/17 04:21:36;;;;;;;;;;;;;;;8.24;100.00;98127.38;5072050;28;19929;-66
2023/10/17 04:24:06;;;;;;;;;;;;;;;8.23;100.00;98128.44;5072114;28;19925;-65
2023/10/17 04:26:34;;;;;;;;;;;;;;;8.22;100.00;98129.47;5071937;28;19925;-65
2023/10/17 04:29:11;;;;;;;;;;;;;;;8.22;100.00;98129.47;5071943;28;19924;-66
2023/10/17 04:31:37;;;;;;;;;;;;;;;8.21;100.00;98127.03;5071980;28;20010;-66
2023/10/17 04:34:06;;;;;;;;;;;;;;;8.19;100.00;98121.97;5071629;28;19929;-65
2023/10/17 04:36:36;;;;;;;;;;;;;;;8.19;100.00;98123.81;5071273;28;19943;-65
2023/10/17 04:39:18;;;;;;;;;;;;;;;8.17;100.00;98118.72;5078425;28;19925;-65
2023/10/17 04:44:32;;;;;;;;;;;;;;;8.15;100.00;98111.00;5067414;28;19936;-65
2023/10/17 04:47:25;;;;;;;;;;;;;;;8.14;100.00;98116.56;5071098;28;19925;-65
2023/10/17 04:49:44;;;;;;;;;;;;;;;8.12;100.00;98108.03;5096981;28;19991;-65
2023/10/17 04:52:18;;;;;;;;;;;;;;;8.12;100.00;98102.69;5111927;28;19924;-65
2023/10/17 04:54:44;;;;;;;;;;;;;;;8.11;100.00;98106.41;5111721;28;19977;-65
2023/10/17 04:57:15;;;;;;;;;;;;;;;8.11;100.00;98101.09;5096059;28;19956;-65
2023/10/17 04:59:43;;;;;;;;;;;;;;;8.08;100.00;98105.03;5091920;28;19931;-66
2023/10/17 05:02:35;;;;;;;;;;;;;;;8.06;100.00;98106.34;5103014;28;19924;-66
2023/10/17 05:08:04;;;;;;;;;;;;;;;7.86;100.00;98090.84;5091947;28;19950;-66
2023/10/17 06:19:15;;;;;;;;;;;;;;;7.88;100.00;98151.78;5098900;28;19959;-65
2023/10/17 06:22:35;;;;;;;;;;;;;;;7.75;100.00;98158.19;5094877;28;19931;-65
2023/10/17 06:24:46;;;;;;;;;;;;;;;7.85;100.00;98161.03;5113275;28;20019;-65
2023/10/17 06:28:13;;;;;;;;;;;;;;;7.90;100.00;98169.09;5114510;28;19947;-65
2023/10/17 06:30:26;;;;;;;;;;;;;;;7.85;100.00;98174.34;5114299;28;19925;-65
2023/10/17 06:33:05;;;;;;;;;;;;;;;7.63;100.00;98180.56;5113888;28;19996;-65
2023/10/17 06:35:31;;;;;;;;;;;;;;;7.61;100.00;98183.47;5114372;28;20005;-65
2023/10/17 06:37:58;;;;;;;;;;;;;;;7.79;100.00;98180.59;5074543;28;19946;-65
2023/10/17 06:40:30;;;;;;;;;;;;;;;7.84;100.00;98178.03;5075446;28;19928;-65
2023/10/17 06:42:59;;;;;;;;;;;;;;;7.78;100.00;98170.19;5102085;28;19967;-66
2023/10/17 06:45:24;;;;;;;;;;;;;;;7.67;100.00;98163.91;5104231;28;19955;-65
2023/10/17 06:47:56;;;;;;;;;;;;;;;7.41;100.00;98170.56;5099940;28;19925;-65
2023/10/17 06:53:11;;;;;;;;;;;;;;;7.49;100.00;98169.38;5060515;28;19959;-65
2023/10/17 06:55:42;;;;;;;;;;;;;;;7.65;100.00;98167.81;5093765;28;19925;-65
2023/10/17 06:58:14;;;;;;;;;;;;;;;7.64;100.00;98163.56;5102051;28;19924;-64
2023/10/17 07:00:49;;;;;;;;;;;;;;;7.63;100.00;98161.94;5094505;28;19924;-66
2023/10/17 07:03:16;;;;;;;;;;;;;;;7.73;100.00;98164.78;5102758;28;19935;-65
2023/10/17 07:05:49;;;;;;;;;;;;;;;7.63;100.00;98160.09;5111897;28;19924;-65
2023/10/17 07:08:19;;;;;;;;;;;;;;;7.81;100.00;98167.88;5072924;28;19925;-65
2023/10/17 07:10:59;;;;;;;;;;;;;;;7.79;100.00;98169.97;5072753;28;19931;-65
2023/10/17 07:13:49;;;;;;;;;;;;;;;7.72;100.00;98171.97;5072789;28;19928;-65
2023/10/17 07:16:16;;;;;;;;;;;;;;;7.67;100.00;98166.56;5071864;28;20285;-65
2023/10/17 07:18:47;;;;;;;;;;;;;;;7.77;100.00;98171.25;5072927;28;19931;-66
2023/10/17 07:21:19;;;;;;;;;;;;;;;7.77;100.00;98164.06;5071173;28;20020;-66
2023/10/17 07:23:48;;;;;;;;;;;;;;;7.84;100.00;98161.25;5071028;28;19924;-66
2023/10/17 07:26:17;;;;;;;;;;;;;;;7.86;100.00;98159.19;5071657;28;19925;-66
2023/10/17 07:28:44;;;;;;;;;;;;;;;7.79;100.00;98158.53;5072649;28;19991;-66
2023/10/17 07:31:12;;;;;;;;;;;;;;;7.89;100.00;98169.34;5072609;28;19924;-65
2023/10/17 07:33:39;;;;;;;;;;;;;;;8.01;100.00;98173.56;5098128;28;19924;-65
2023/10/17 07:36:06;;;;;;;;;;;;;;;8.01;100.00;98168.25;5104848;28;19925;-66
2023/10/17 07:38:33;;;;;;;;;;;;;;;7.92;100.00;98171.53;5072511;28;20309;-65
2023/10/17 07:41:12;;;;;;;;;;;;;;;7.83;100.00;98167.66;5071292;28;20378;-65
2023/10/17 07:43:43;;;;;;;;;;;;;;;7.79;100.00;98161.19;5072375;28;19924;-65
2023/10/17 07:46:15;;;;;;;;;;;;;;;7.86;100.00;98165.28;5072287;28;19925;-65
2023/10/17 07:48:46;;;;;;;;;;;;;;;7.71;100.00;98167.69;5072248;28;19925;-65
2023/10/17 07:51:15;;;;;;;;;;;;;;;7.90;100.00;98173.59;5072384;28;19940;-66
2023/10/17 07:53:45;;;;;;;;;;;;;;;7.80;100.00;98165.47;5072399;28;19924;-65
2023/10/17 07:56:20;;;;;;;;;;;;;;;7.84;100.00;98161.25;5072441;28;19924;-66
2023/10/17 07:58:46;;;;;;;;;;;;;;;7.71;100.00;98158.88;5104649;28;20325;-66
2023/10/17 08:01:16;;;;;;;;;;;;;;;7.97;100.00;98155.66;5072337;28;19924;-66
2023/10/17 08:03:49;;;;;;;;;;;;;;;8.06;100.00;98152.34;5072225;28;19971;-65
2023/10/17 08:06:20;;;;;;;;;;;;;;;7.97;100.00;98153.00;5071161;28;19951;-66
2023/10/17 08:08:49;;;;;;;;;;;;;;;8.01;100.00;98151.47;5072252;28;19925;-66
2023/10/17 08:11:31;;;;;;;;;;;;;;;8.06;100.00;98156.88;5072281;28;19925;-66
2023/10/17 08:14:01;;;;;;;;;;;;;;;8.03;100.00;98152.03;5072123;28;19925;-66
2023/10/17 08:16:29;;;;;;;;;;;;;;;8.21;100.00;98153.66;5072584;28;19960;-66
2023/10/17 08:18:58;;;;;;;;;;;;;;;8.13;100.00;98162.84;5072052;28;19933;-66
2023/10/17 08:21:33;;;;;;;;;;;;;;;8.18;100.00;98162.91;5072005;28;19929;-65
2023/10/17 08:24:02;;;;;;;;;;;;;;;8.19;100.00;98163.72;5071779;28;19974;-65
2023/10/17 08:26:29;;;;;;;;;;;;;;;8.29;100.00;98159.44;5071919;28;19935;-66
2023/10/17 08:28:56;;;;;;;;;;;;;;;8.38;100.00;98165.94;5071812;28;19929;-66
2023/10/17 08:31:23;;;;;;;;;;;;;;;8.48;100.00;98163.44;5071504;28;19976;-65
2023/10/17 08:33:57;;;;;;;;;;;;;;;8.45;100.00;98158.59;5071792;28;19925;-65
2023/10/17 08:36:28;;;;;;;;;;;;;;;8.27;100.00;98158.00;5071277;28;19925;-66
2023/10/17 08:38:54;;;;;;;;;;;;;;;8.41;100.00;98160.16;5071629;28;19978;-65
2023/10/17 08:41:23;;;;;;;;;;;;;;;8.48;100.00;98158.09;5071588;28;19932;-66
2023/10/17 08:43:50;;;;;;;;;;;;;;;8.54;100.00;98157.13;5070315;28;19966;-66
2023/10/17 08:46:17;;;;;;;;;;;;;;;8.48;100.00;98152.00;5071415;28;19929;-66
2023/10/17 08:48:44;;;;;;;;;;;;;;;8.51;100.00;98157.63;5071207;28;19924;-65
2023/10/17 08:51:12;;;;;;;;;;;;;;;8.49;100.00;98151.75;5071225;28;19925;-65
2023/10/17 08:53:39;;;;;;;;;;;;;;;8.59;100.00;98153.75;5071613;28;19975;-67
2023/10/17 08:56:08;;;;;;;;;;;;;;;8.58;100.00;98149.47;5071499;28;19924;-66
2023/10/17 08:58:36;;;;;;;;;;;;;;;8.52;100.00;98150.44;5072286;28;20020;-65
2023/10/17 09:01:11;;;;;;;;;;;;;;;8.58;100.00;98165.44;5071421;28;19925;-65
2023/10/17 09:03:43;;;;;;;;;;;;;;;8.46;100.00;98162.88;5070487;28;19984;-66
2023/10/17 09:08:56;;;;;;;;;;;;;;;8.50;100.00;98155.22;5071278;28;19931;-65
2023/10/17 09:11:33;;;;;;;;;;;;;;;8.48;100.00;98152.78;5071163;28;20012;-65
2023/10/17 09:14:17;;;;;;;;;;;;;;;8.38;100.00;98150.00;5071056;28;19946;-66
2023/10/17 09:16:50;;;;;;;;;;;;;;;8.48;100.00;98154.66;5071023;28;19921;-67
2023/10/17 09:19:20;;;;;;;;;;;;;;;8.56;100.00;98149.72;5070998;28;19984;-65
2023/10/17 09:21:47;;;;;;;;;;;;;;;8.61;100.00;98138.31;5070819;28;19971;-65
2023/10/17 09:24:35;;;;;;;;;;;;;;;8.64;100.00;98132.50;5071236;28;19946;-66
2023/10/17 09:27:09;;;;;;;;;;;;;;;8.80;100.00;98138.84;5070614;28;20023;-66
2023/10/17 09:29:51;;;;;;;;;;;;;;;8.95;100.00;98149.72;5070924;28;19931;-65
2023/10/17 09:32:32;;;;;;;;;;;;;;;8.99;100.00;98153.50;5070723;28;19925;-65
2023/10/17 09:35:00;;;;;;;;;;;;;;;8.96;100.00;98146.81;5071038;28;19935;-65
2023/10/17 09:37:27;;;;;;;;;;;;;;;8.87;100.00;98134.97;5070909;28;19924;-65
2023/10/17 09:39:55;;;;;;;;;;;;;;;8.79;100.00;98142.59;5070931;28;19931;-66
2023/10/17 09:42:21;;;;;;;;;;;;;;;8.72;100.00;98142.75;5070729;28;19979;-66
2023/10/17 09:44:48;;;;;;;;;;;;;;;8.66;100.00;98139.19;5070633;28;19924;-65
2023/10/17 09:47:19;;;;;;;;;;;;;;;8.73;100.00;98138.25;5070923;28;19921;-66
2023/10/17 09:49:48;;;;;;;;;;;;;;;8.81;100.00;98124.50;5074505;28;19947;-65
2023/10/17 09:52:18;;;;;;;;;;;;;;;8.81;100.00;98129.84;5074315;28;19924;-65
2023/10/17 09:54:51;;;;;;;;;;;;;;;8.99;100.00;98126.88;5074732;28;20476;-65
2023/10/17 09:57:20;;;;;;;;;;;;;;;9.10;100.00;98117.94;5073393;28;19948;-66
2023/10/17 09:59:54;;;;;;;;;;;;;;;9.11;100.00;98119.56;5074194;28;20481;-65
2023/10/17 10:02:23;;;;;;;;;;;;;;;9.23;100.00;98109.56;5074449;28;19929;-66
2023/10/17 10:04:49;;;;;;;;;;;;;;;9.30;100.00;98107.53;5074139;28;19986;-66
2023/10/17 10:07:19;;;;;;;;;;;;;;;9.23;100.00;98110.38;5087778;28;19925;-66
2023/10/17 10:09:46;;;;;;;;;;;;;;;9.10;100.00;98110.75;5094097;28;19963;-66
2023/10/17 10:12:14;;;;;;;;;;;;;;;9.13;100.00;98096.13;5094085;28;19925;-66
2023/10/17 10:14:44;;;;;;;;;;;;;;;9.26;100.00;98110.94;5093963;28;19929;-66
2023/10/17 10:17:11;;;;;;;;;;;;;;;9.30;100.00;98112.06;5094380;28;19964;-67
2023/10/17 10:19:56;;;;;;;;;;;;;;;9.30;100.00;98101.38;5093878;28;19924;-66
2023/10/17 10:22:24;;;;;;;;;;;;;;;9.40;100.00;98094.31;5093777;28;19931;-66
2023/10/17 10:25:05;;;;;;;;;;;;;;;9.49;100.00;98097.34;5093879;28;19992;-66
2023/10/17 10:27:31;;;;;;;;;;;;;;;9.63;100.00;98099.34;5093863;28;19990;-66
2023/10/17 10:30:14;;;;;;;;;;;;;;;9.71;100.00;98093.56;5093535;28;19934;-66
2023/10/17 10:32:43;;;;;;;;;;;;;;;9.73;100.00;98091.44;5093250;28;19971;-66
2023/10/17 10:35:11;;;;;;;;;;;;;;;9.73;100.00;98090.63;5093739;28;19963;-66
2023/10/17 10:37:52;;;;;;;;;;;;;;;9.69;100.00;98093.00;5076532;28;19925;-66
2023/10/17 10:40:22;;;;;;;;;;;;;;;9.76;100.00;98085.59;5073621;28;19924;-66
2023/10/17 10:42:49;;;;;;;;;;;;;;;9.91;100.00;98081.44;5073714;28;19932;-65
2023/10/17 10:45:31;;;;;;;;;;;;;;;9.99;100.00;98078.34;5073609;28;19925;-65
2023/10/17 10:48:01;;;;;;;;;;;;;;;9.94;100.00;98080.94;5073309;28;19925;-66
2023/10/17 10:50:29;;;;;;;;;;;;;;;9.91;100.00;98082.25;5073412;28;20027;-66
2023/10/17 10:52:58;;;;;;;;;;;;;;;9.98;100.00;98079.38;5073443;28;19954;-65
2023/10/17 10:55:25;;;;;;;;;;;;;;;10.07;100.00;98077.84;5073598;28;19948;-65
2023/10/17 10:57:52;;;;;;;;;;;;;;;10.08;100.00;98071.47;5073654;28;20432;-66
2023/10/17 11:00:18;;;;;;;;;;;;;;;10.08;100.00;98064.28;5072987;28;19925;-67
2023/10/17 11:02:45;;;;;;;;;;;;;;;10.09;100.00;98062.38;5072997;28;20006;-66
2023/10/17 11:05:13;;;;;;;;;;;;;;;10.08;100.00;98069.59;5073272;28;19990;-66
2023/10/17 11:07:41;;;;;;;;;;;;;;;10.10;100.00;98070.16;5089820;28;19935;-65
2023/10/17 11:10:10;;;;;;;;;;;;;;;10.23;100.00;98063.59;5092925;28;19947;-66
2023/10/17 11:12:37;;;;;;;;;;;;;;;10.36;100.00;98067.69;5092991;28;19988;-66
2023/10/17 11:15:10;;;;;;;;;;;;;;;10.39;100.00;98069.84;5092742;28;19932;-66
2023/10/17 11:17:36;;;;;;;;;;;;;;;10.42;100.00;98053.31;5092880;28;19924;-65
2023/10/17 11:20:14;;;;;;;;;;;;;;;10.38;100.00;98052.19;5092969;28;19925;-66
2023/10/17 11:22:41;;;;;;;;;;;;;;;10.35;100.00;98058.06;5092617;28;19939;-66
2023/10/17 11:25:13;;;;;;;;;;;;;;;10.33;100.00;98058.34;5092661;28;19931;-65
2023/10/17 11:27:49;;;;;;;;;;;;;;;10.38;100.00;98060.22;5091275;28;19931;-65
2023/10/17 11:30:18;;;;;;;;;;;;;;;10.42;100.00;98050.63;5092468;28;19924;-65
2023/10/17 11:32:45;;;;;;;;;;;;;;;10.48;100.00;98050.41;5099480;28;19932;-66
2023/10/17 11:35:19;;;;;;;;;;;;;;;10.51;100.00;98054.44;5100822;28;19983;-66
2023/10/17 11:37:46;;;;;;;;;;;;;;;10.52;100.00;98043.47;5085008;28;19925;-67
2023/10/17 11:40:29;;;;;;;;;;;;;;;10.43;100.00;98047.69;5092194;28;19986;-65
2023/10/17 11:42:58;;;;;;;;;;;;;;;10.42;100.00;98050.63;5092272;28;19924;-65
2023/10/17 11:45:33;;;;;;;;;;;;;;;10.41;100.00;98036.47;5092378;28;19920;-66
2023/10/17 11:48:03;;;;;;;;;;;;;;;10.46;100.00;98041.06;5092254;28;19921;-65
2023/10/17 11:50:32;;;;;;;;;;;;;;;10.47;100.00;98039.97;5092263;28;19988;-66
2023/10/17 11:53:09;;;;;;;;;;;;;;;10.51;100.00;98038.41;5092269;28;19927;-66
2023/10/17 11:55:40;;;;;;;;;;;;;;;10.51;100.00;98035.72;5092222;28;20024;-65
2023/10/17 11:58:08;;;;;;;;;;;;;;;10.54;100.00;98033.34;5092149;28;19924;-65
2023/10/17 12:00:35;;;;;;;;;;;;;;;10.51;100.00;98028.53;5100641;28;19924;-67
2023/10/17 12:03:02;;;;;;;;;;;;;;;10.44;100.00;98027.13;5092106;28;19929;-66
2023/10/17 12:05:30;;;;;;;;;;;;;;;10.46;100.00;98020.47;5091952;28;20488;-66
2023/10/17 12:07:59;;;;;;;;;;;;;;;10.52;100.00;98019.44;5072720;28;19988;-66
2023/10/17 12:10:26;;;;;;;;;;;;;;;10.53;100.00;98026.41;5071390;28;19996;-66
2023/10/17 12:12:58;;;;;;;;;;;;;;;10.52;100.00;98022.09;5071918;28;19931;-66
2023/10/17 12:15:26;;;;;;;;;;;;;;;10.56;100.00;98004.50;5071791;28;19925;-66
2023/10/17 12:17:53;;;;;;;;;;;;;;;10.60;100.00;98010.13;5072043;28;19921;-66
2023/10/17 12:20:25;;;;;;;;;;;;;;;10.57;100.00;98008.00;5071959;28;19943;-66
2023/10/17 12:22:54;;;;;;;;;;;;;;;10.59;100.00;98001.31;5072084;28;19928;-66
2023/10/17 12:25:23;;;;;;;;;;;;;;;10.61;100.00;97988.53;5071843;28;19931;-65
2023/10/17 12:27:52;;;;;;;;;;;;;;;10.67;100.00;97989.34;5071606;28;20035;-66
2023/10/17 12:30:26;;;;;;;;;;;;;;;10.66;100.00;97977.03;5071689;28;19925;-66
2023/10/17 12:32:55;;;;;;;;;;;;;;;10.66;100.00;97977.84;5071517;28;19960;-66
2023/10/17 12:35:21;;;;;;;;;;;;;;;10.65;100.00;97980.78;5089619;28;19924;-66
2023/10/17 12:37:50;;;;;;;;;;;;;;;10.69;100.00;97988.03;5078156;28;20581;-66
2023/10/17 12:40:20;;;;;;;;;;;;;;;10.68;100.00;97986.41;5092280;28;19924;-66
2023/10/17 12:42:47;;;;;;;;;;;;;;;10.71;100.00;97991.22;5097185;28;19996;-66
2023/10/17 12:45:14;;;;;;;;;;;;;;;10.69;100.00;97992.56;5099936;28;20495;-66
2023/10/17 12:47:43;;;;;;;;;;;;;;;10.69;100.00;97996.03;5091428;28;19924;-66
2023/10/17 12:50:12;;;;;;;;;;;;;;;10.70;100.00;98000.31;5099683;28;19924;-66
2023/10/17 12:52:39;;;;;;;;;;;;;;;10.64;100.00;98000.56;5107813;28;19920;-65
2023/10/17 12:55:07;;;;;;;;;;;;;;;10.57;100.00;98003.47;5098977;28;19924;-66
2023/10/17 12:57:33;;;;;;;;;;;;;;;10.66;100.00;98009.09;5095174;28;20009;-66
2023/10/17 13:00:02;;;;;;;;;;;;;;;10.69;100.00;98012.06;5103299;28;19935;-66
2023/10/17 13:02:29;;;;;;;;;;;;;;;10.72;100.00;98022.22;5103230;28;19924;-66
2023/10/17 13:04:55;;;;;;;;;;;;;;;10.75;100.00;98018.22;5097220;28;19928;-66
2023/10/17 13:07:23;;;;;;;;;;;;;;;10.71;100.00;98012.59;5088672;28;19928;-66
2023/10/17 13:09:49;;;;;;;;;;;;;;;10.70;100.00;98010.19;5099849;28;19929;-66
2023/10/17 13:12:16;;;;;;;;;;;;;;;10.71;100.00;98012.59;5099742;28;20047;-65
2023/10/17 13:14:42;;;;;;;;;;;;;;;10.69;100.00;97998.69;5099357;28;19928;-65
2023/10/17 13:17:11;;;;;;;;;;;;;;;10.64;100.00;98001.38;5107476;28;20622;-66
2023/10/17 13:19:42;;;;;;;;;;;;;;;10.62;100.00;98000.78;5099618;28;19983;-66
2023/10/17 13:22:14;;;;;;;;;;;;;;;10.64;100.00;97993.34;5099774;28;19921;-66
2023/10/17 13:24:43;;;;;;;;;;;;;;;10.63;100.00;97978.38;5091797;28;19928;-66
2023/10/17 13:27:09;;;;;;;;;;;;;;;10.55;100.00;97973.53;5099165;28;19924;-67
2023/10/17 13:29:36;;;;;;;;;;;;;;;10.66;100.00;97974.38;5102356;28;19952;-66
2023/10/17 13:32:07;;;;;;;;;;;;;;;10.58;100.00;97967.69;5102410;28;20561;-66
2023/10/17 13:34:34;;;;;;;;;;;;;;;10.56;100.00;97963.66;5099564;28;19963;-66
2023/10/17 13:37:04;;;;;;;;;;;;;;;10.57;100.00;97958.06;5088989;28;19925;-66
2023/10/17 13:39:30;;;;;;;;;;;;;;;10.60;100.00;97965.56;5101430;28;19924;-66
2023/10/17 13:41:58;;;;;;;;;;;;;;;10.65;100.00;97973.56;5102609;28;19931;-66
2023/10/17 13:44:24;;;;;;;;;;;;;;;10.65;100.00;97970.91;5100801;28;19924;-67
2023/10/17 13:46:52;;;;;;;;;;;;;;;10.64;100.00;97979.19;5099181;28;19924;-66
2023/10/17 13:49:18;;;;;;;;;;;;;;;10.66;100.00;97990.41;5099945;28;20137;-66
2023/10/17 13:51:46;;;;;;;;;;;;;;;10.67;99.79;97984.81;5102690;28;19920;-66
2023/10/17 13:54:13;;;;;;;;;;;;;;;10.67;99.94;97984.81;5093316;28;19935;-66
2023/10/17 13:56:40;;;;;;;;;;;;;;;10.62;100.00;97982.09;5091093;28;19959;-66
2023/10/17 13:59:09;;;;;;;;;;;;;;;10.63;99.52;97985.59;5099035;28;19925;-66
2023/10/17 14:01:41;;;;;;;;;;;;;;;10.66;100.00;97991.22;5102113;28;20284;-66
2023/10/17 14:04:09;;;;;;;;;;;;;;;10.65;99.44;97986.13;5103120;28;19928;-66
2023/10/17 14:06:38;;;;;;;;;;;;;;;10.54;100.00;97979.13;5093548;28;19925;-65
2023/10/17 14:09:04;;;;;;;;;;;;;;;10.54;100.00;97963.13;5098972;28;20070;-66
2023/10/17 14:11:31;;;;;;;;;;;;;;;10.62;100.00;97967.94;5101252;28;19925;-66
2023/10/17 14:13:58;;;;;;;;;;;;;;;10.57;100.00;97974.09;5101969;28;19924;-66
2023/10/17 14:16:26;;;;;;;;;;;;;;;10.70;100.00;97973.59;5100272;28;19987;-66
2023/10/17 14:19:04;;;;;;;;;;;;;;;10.68;100.00;97969.56;5098396;28;19929;-66